createdAt,value
2022-08-10T00:01:54.028Z,13.50
2022-08-10T00:04:23.446Z,13.50
2022-08-10T00:06:55.001Z,13.70
2022-08-10T00:09:23.472Z,13.50
2022-08-10T00:11:50.491Z,13.40
2022-08-10T00:14:18.290Z,13.50
2022-08-10T00:16:45.228Z,13.40
2022-08-10T00:19:12.167Z,13.50
2022-08-10T00:21:39.380Z,13.30
2022-08-10T00:24:06.442Z,13.30
2022-08-10T00:28:01.133Z,13.40
2022-08-10T00:29:21.372Z,13.30
2022-08-10T00:31:58.099Z,13.20
2022-08-10T00:34:30.853Z,13.10
2022-08-10T00:36:58.514Z,13.20
2022-08-10T00:39:26.336Z,13.30
2022-08-10T00:42:02.289Z,13.20
2022-08-10T00:44:47.705Z,13.10
2022-08-10T00:47:36.287Z,13.00
2022-08-10T00:50:01.828Z,12.90
2022-08-10T00:52:31.042Z,12.90
2022-08-10T00:54:59.256Z,12.80
2022-08-10T00:57:26.403Z,13.00
2022-08-10T00:59:58.521Z,13.00
2022-08-10T01:02:27.611Z,12.90
2022-08-10T01:05:00.966Z,13.00
2022-08-10T01:07:34.598Z,12.90
2022-08-10T01:10:19.368Z,12.90
2022-08-10T01:13:01.722Z,13.00
2022-08-10T01:15:54.354Z,13.00
2022-08-10T01:18:27.458Z,12.90
2022-08-10T01:21:18.077Z,13.00
2022-08-10T01:24:02.999Z,12.80
2022-08-10T01:26:54.550Z,12.80
2022-08-10T01:29:35.564Z,12.80
2022-08-10T01:32:07.376Z,12.80
2022-08-10T01:35:01.973Z,12.80
2022-08-10T01:37:34.416Z,12.80
2022-08-10T01:40:04.723Z,12.60
2022-08-10T01:42:36.111Z,12.40
2022-08-10T01:45:07.209Z,12.40
2022-08-10T01:48:01.158Z,12.40
2022-08-10T01:50:59.127Z,12.50
2022-08-10T01:53:41.006Z,12.50
2022-08-10T01:56:11.006Z,12.60
2022-08-10T01:58:39.568Z,12.40
2022-08-10T02:01:09.625Z,12.20
2022-08-10T02:04:03.067Z,12.30
2022-08-10T02:06:28.056Z,12.30
2022-08-10T02:09:05.866Z,12.20
2022-08-10T02:12:06.515Z,12.20
2022-08-10T02:14:21.656Z,12.20
2022-08-10T02:16:51.623Z,12.40
2022-08-10T02:19:23.883Z,12.40
2022-08-10T02:22:15.417Z,12.50
2022-08-10T02:24:42.874Z,12.50
2022-08-10T02:27:11.362Z,12.30
2022-08-10T02:29:42.288Z,12.20
2022-08-10T02:32:11.549Z,12.10
2022-08-10T02:34:41.135Z,12.00
2022-08-10T02:37:10.851Z,12.10
2022-08-10T02:39:39.614Z,12.20
2022-08-10T02:45:20.715Z,12.30
2022-08-10T02:45:30.745Z,12.10
2022-08-10T02:48:07.204Z,12.10
2022-08-10T02:50:36.650Z,12.00
2022-08-10T02:53:56.108Z,12.00
2022-08-10T02:56:11.952Z,12.10
2022-08-10T02:58:44.349Z,11.80
2022-08-10T03:01:14.448Z,11.80
2022-08-10T03:03:50.377Z,11.80
2022-08-10T03:06:22.197Z,11.70
2022-08-10T03:08:49.244Z,11.80
2022-08-10T03:12:36.038Z,11.60
2022-08-10T03:14:24.391Z,11.80
2022-08-10T03:16:54.060Z,12.00
2022-08-10T03:20:33.614Z,11.90
2022-08-10T03:22:11.612Z,11.90
2022-08-10T03:24:39.745Z,11.80
2022-08-10T03:27:07.279Z,11.70
2022-08-10T03:30:23.221Z,11.50
2022-08-10T03:32:24.250Z,11.40
2022-08-10T03:34:52.316Z,11.60
2022-08-10T03:37:19.430Z,11.60
2022-08-10T03:39:46.522Z,11.60
2022-08-10T03:42:14.993Z,11.70
2022-08-10T03:44:45.237Z,11.80
2022-08-10T03:47:17.558Z,11.80
2022-08-10T03:49:47.196Z,11.70
2022-08-10T03:52:15.399Z,11.50
2022-08-10T03:54:43.065Z,11.50
2022-08-10T03:57:10.883Z,11.60
2022-08-10T03:59:38.336Z,11.70
2022-08-10T04:02:46.488Z,11.80
2022-08-10T04:04:55.263Z,11.70
2022-08-10T04:07:22.259Z,11.50
2022-08-10T04:09:55.350Z,11.40
2022-08-10T04:12:23.993Z,11.60
2022-08-10T04:14:52.891Z,11.60
2022-08-10T04:18:01.257Z,11.80
2022-08-10T04:20:30.034Z,11.70
2022-08-10T04:23:06.134Z,11.70
2022-08-10T04:25:33.868Z,11.60
2022-08-10T04:28:01.272Z,11.60
2022-08-10T04:30:31.630Z,11.80
2022-08-10T04:33:00.811Z,11.90
2022-08-10T04:35:29.327Z,11.90
2022-08-10T04:37:57.986Z,12.00
2022-08-10T04:40:29.190Z,12.00
2022-08-10T04:43:02.413Z,12.20
2022-08-10T04:45:47.579Z,12.40
2022-08-10T04:48:40.278Z,12.50
2022-08-10T04:51:06.088Z,12.40
2022-08-10T04:54:04.825Z,12.50
2022-08-10T04:56:21.387Z,12.50
2022-08-10T04:58:59.385Z,12.60
2022-08-10T05:01:26.232Z,12.80
2022-08-10T05:04:36.254Z,13.00
2022-08-10T05:06:40.017Z,13.20
2022-08-10T05:09:06.824Z,13.40
2022-08-10T05:11:33.779Z,13.60
2022-08-10T05:14:00.601Z,13.60
2022-08-10T05:16:32.019Z,13.80
2022-08-10T05:18:59.204Z,13.80
2022-08-10T05:22:03.571Z,14.00
2022-08-10T05:24:12.958Z,14.10
2022-08-10T05:26:55.210Z,14.30
2022-08-10T05:29:26.628Z,14.30
2022-08-10T05:31:54.152Z,14.20
2022-08-10T05:34:26.549Z,14.20
2022-08-10T05:36:55.405Z,14.20
2022-08-10T05:39:30.420Z,14.30
2022-08-10T05:42:01.481Z,14.50
2022-08-10T05:44:29.418Z,14.90
2022-08-10T05:46:56.517Z,15.10
2022-08-10T05:49:23.425Z,15.40
2022-08-10T05:51:50.756Z,15.20
2022-08-10T05:54:17.970Z,15.40
2022-08-10T05:56:56.057Z,15.40
2022-08-10T06:00:35.828Z,15.70
2022-08-10T06:02:34.932Z,15.70
2022-08-10T06:05:11.212Z,15.90
2022-08-10T06:07:42.623Z,16.10
2022-08-10T06:10:12.697Z,16.20
2022-08-10T06:12:54.344Z,16.40
2022-08-10T06:15:50.918Z,16.60
2022-08-10T06:18:15.561Z,16.90
2022-08-10T06:20:43.690Z,17.10
2022-08-10T06:23:11.945Z,17.30
2022-08-10T06:26:11.978Z,17.60
2022-08-10T06:28:29.583Z,17.90
2022-08-10T06:30:57.699Z,18.40
2022-08-10T06:33:26.570Z,18.80
2022-08-10T06:35:56.495Z,18.80
2022-08-10T06:38:29.009Z,18.80
2022-08-10T06:40:58.784Z,18.80
2022-08-10T06:43:50.112Z,18.80
2022-08-10T06:46:20.585Z,18.80
2022-08-10T06:48:52.895Z,18.90
2022-08-10T06:51:26.735Z,19.00
2022-08-10T06:54:00.279Z,19.70
2022-08-10T06:56:37.889Z,20.00
2022-08-10T06:59:27.570Z,20.40
2022-08-10T07:02:01.316Z,20.30
2022-08-10T07:04:35.319Z,20.20
2022-08-10T07:07:07.735Z,20.40
2022-08-10T07:09:39.973Z,20.30
2022-08-10T07:12:09.661Z,20.30
2022-08-10T07:14:43.595Z,20.60
2022-08-10T07:17:16.658Z,20.80
2022-08-10T07:19:50.515Z,20.80
2022-08-10T07:23:55.404Z,20.70
2022-08-10T07:25:15.083Z,20.70
2022-08-10T07:28:00.858Z,20.60
2022-08-10T07:30:36.034Z,20.70
2022-08-10T07:33:04.851Z,20.50
2022-08-10T07:35:42.322Z,20.40
2022-08-10T07:38:17.143Z,20.30
2022-08-10T07:40:44.606Z,20.40
2022-08-10T07:43:12.717Z,20.30
2022-08-10T07:45:40.555Z,20.50
2022-08-10T07:48:14.119Z,20.70
2022-08-10T07:50:42.770Z,20.70
2022-08-10T07:53:17.165Z,20.80
2022-08-10T07:56:04.328Z,20.90
2022-08-10T07:58:46.325Z,21.50
2022-08-10T08:01:23.147Z,21.60
2022-08-10T08:04:05.815Z,21.60
2022-08-10T08:06:39.203Z,21.80
2022-08-10T08:09:26.872Z,21.70
2022-08-10T08:11:55.411Z,21.80
2022-08-10T08:14:23.832Z,21.90
2022-08-10T08:16:53.265Z,22.20
2022-08-10T08:19:27.873Z,21.90
2022-08-10T08:24:08.885Z,21.80
2022-08-10T08:24:52.423Z,21.80
2022-08-10T08:27:21.104Z,21.70
2022-08-10T08:29:49.625Z,21.80
2022-08-10T08:32:29.131Z,21.90
2022-08-10T08:35:11.927Z,22.20
2022-08-10T08:38:29.851Z,22.60
2022-08-10T08:40:32.813Z,22.40
2022-08-10T08:43:37.152Z,22.10
2022-08-10T08:46:17.292Z,22.10
2022-08-10T08:50:04.833Z,22.10
2022-08-10T08:52:37.777Z,22.30
2022-08-10T08:56:03.013Z,22.50
2022-08-10T08:58:31.361Z,22.90
2022-08-10T09:01:06.741Z,22.80
2022-08-10T09:03:58.670Z,22.80
2022-08-10T09:06:48.679Z,22.90
2022-08-10T09:09:47.305Z,22.60
2022-08-10T09:12:29.356Z,22.80
2022-08-10T09:15:08.053Z,22.70
2022-08-10T09:17:56.268Z,22.60
2022-08-10T09:20:58.106Z,22.50
2022-08-10T09:24:01.385Z,22.60
2022-08-10T09:26:58.934Z,22.80
2022-08-10T09:29:28.595Z,23.10
2022-08-10T09:36:15.580Z,23.40
2022-08-10T09:36:26.578Z,23.50
2022-08-10T09:38:03.450Z,23.50
2022-08-10T09:41:01.019Z,23.70
2022-08-10T09:43:41.109Z,23.80
2022-08-10T09:46:33.436Z,23.40
2022-08-10T09:49:18.512Z,23.50
2022-08-10T09:52:07.341Z,23.70
2022-08-10T09:54:53.169Z,23.50
2022-08-10T09:57:55.260Z,23.50
2022-08-10T10:00:20.978Z,23.90
2022-08-10T10:03:17.744Z,24.20
2022-08-10T10:06:10.924Z,24.20
2022-08-10T10:08:42.937Z,23.50
2022-08-10T10:11:16.796Z,23.50
2022-08-10T10:14:06.440Z,23.80
2022-08-10T10:17:00.989Z,23.80
2022-08-10T10:19:52.577Z,24.10
2022-08-10T10:22:28.240Z,24.20
2022-08-10T10:25:19.972Z,24.20
2022-08-10T10:28:13.453Z,24.20
2022-08-10T10:31:16.919Z,24.20
2022-08-10T10:34:02.632Z,24.10
2022-08-10T10:36:30.744Z,24.40
2022-08-10T10:39:00.139Z,24.90
2022-08-10T10:42:03.729Z,24.50
2022-08-10T10:45:00.635Z,24.40
2022-08-10T10:47:42.376Z,24.60
2022-08-10T10:50:15.154Z,24.80
2022-08-10T10:53:00.466Z,24.90
2022-08-10T10:56:13.466Z,25.00
2022-08-10T10:58:43.550Z,25.30
2022-08-10T11:01:22.724Z,25.00
2022-08-10T11:04:06.577Z,24.60
2022-08-10T11:07:10.425Z,24.40
2022-08-10T11:10:04.800Z,24.90
2022-08-10T11:13:02.269Z,24.70
2022-08-10T11:20:02.749Z,25.00
2022-08-10T11:22:53.124Z,25.40
2022-08-10T11:25:29.921Z,25.40
2022-08-10T11:28:31.057Z,25.50
2022-08-10T11:31:15.619Z,25.50
2022-08-10T11:34:49.182Z,25.40
2022-08-10T11:37:11.024Z,25.50
2022-08-10T11:39:57.719Z,25.40
2022-08-10T11:42:57.110Z,25.60
2022-08-10T11:45:34.466Z,25.90
2022-08-10T11:48:54.509Z,25.70
2022-08-10T11:51:10.332Z,25.40
2022-08-10T11:54:19.488Z,25.60
2022-08-10T11:56:52.893Z,25.50
2022-08-10T11:59:42.661Z,25.70
2022-08-10T12:05:57.247Z,26.50
2022-08-10T12:10:04.071Z,26.40
2022-08-10T12:11:24.417Z,26.10
2022-08-10T12:18:22.473Z,25.50
2022-08-10T12:21:36.668Z,25.50
2022-08-10T12:24:33.856Z,25.70
2022-08-10T12:27:15.913Z,25.70
2022-08-10T12:29:53.925Z,25.40
2022-08-10T12:32:48.009Z,25.20
2022-08-10T12:35:35.755Z,25.30
2022-08-10T12:38:21.528Z,24.80
2022-08-10T12:41:10.457Z,24.40
2022-08-10T12:44:07.032Z,24.20
2022-08-10T12:47:14.277Z,24.40
2022-08-10T12:50:26.726Z,25.00
2022-08-10T12:53:04.949Z,24.90
2022-08-10T12:55:54.176Z,24.50
2022-08-10T12:58:58.767Z,24.50
2022-08-10T13:01:18.787Z,24.40
2022-08-10T13:04:21.006Z,24.40
2022-08-10T13:06:53.297Z,24.30
2022-08-10T13:09:25.140Z,24.30
2022-08-10T13:12:36.582Z,24.50
2022-08-10T13:15:49.796Z,24.70
2022-08-10T13:18:26.183Z,24.80
2022-08-10T13:20:55.908Z,25.70
2022-08-10T13:23:29.174Z,25.90
2022-08-10T13:25:59.550Z,26.00
2022-08-10T13:28:45.411Z,25.90
2022-08-10T13:32:08.960Z,25.50
2022-08-10T13:34:45.289Z,25.50
2022-08-10T13:37:22.565Z,25.70
2022-08-10T13:39:59.071Z,25.60
2022-08-10T13:46:22.059Z,24.90
2022-08-10T13:48:54.202Z,24.80
2022-08-10T13:51:23.375Z,24.70
2022-08-10T13:54:11.768Z,24.80
2022-08-10T13:56:44.176Z,24.70
2022-08-10T13:59:16.166Z,24.70
2022-08-10T14:01:49.211Z,24.70
2022-08-10T14:04:17.764Z,25.40
2022-08-10T14:07:36.841Z,25.50
2022-08-10T14:14:04.047Z,26.30
2022-08-10T14:16:33.260Z,26.30
2022-08-10T14:19:04.919Z,26.40
2022-08-10T14:21:38.841Z,26.30
2022-08-10T14:24:06.248Z,26.40
2022-08-10T14:26:33.317Z,26.50
2022-08-10T14:29:08.451Z,26.30
2022-08-10T14:31:39.226Z,25.60
2022-08-10T14:36:17.418Z,25.20
2022-08-10T14:37:38.795Z,25.00
2022-08-10T14:40:11.614Z,24.90
2022-08-10T14:42:50.848Z,24.90
2022-08-10T14:45:29.104Z,24.90
2022-08-10T14:48:39.374Z,24.80
2022-08-10T14:51:07.644Z,24.70
2022-08-10T14:53:37.407Z,24.80
2022-08-10T15:04:31.001Z,24.90
2022-08-10T15:07:02.858Z,25.10
2022-08-10T15:10:01.417Z,25.30
2022-08-10T15:12:24.955Z,25.20
2022-08-10T15:14:58.545Z,24.90
2022-08-10T15:17:35.050Z,24.80
2022-08-10T15:24:50.710Z,24.90
2022-08-10T15:27:21.769Z,24.80
2022-08-10T15:29:56.644Z,24.70
2022-08-10T15:32:53.835Z,24.60
2022-08-10T15:35:42.532Z,24.60
2022-08-10T15:38:10.707Z,24.50
2022-08-10T15:40:51.288Z,24.50
2022-08-10T15:43:25.830Z,24.50
2022-08-10T15:46:29.993Z,24.50
2022-08-10T15:49:01.594Z,24.40
2022-08-10T15:52:01.861Z,24.30
2022-08-10T15:54:41.309Z,24.20
2022-08-10T15:57:20.719Z,24.30
2022-08-10T15:59:55.171Z,24.20
2022-08-10T16:02:27.478Z,24.10
2022-08-10T16:05:20.501Z,24.10
2022-08-10T16:08:10.422Z,23.90
2022-08-10T16:10:53.645Z,23.90
2022-08-10T16:13:50.402Z,23.70
2022-08-10T16:16:11.345Z,23.70
2022-08-10T16:18:40.923Z,23.60
2022-08-10T16:21:19.679Z,23.60
2022-08-10T16:24:14.940Z,23.50
2022-08-10T16:26:46.269Z,23.60
2022-08-10T16:29:23.611Z,23.40
2022-08-10T16:31:59.874Z,23.40
2022-08-10T16:34:29.267Z,23.30
2022-08-10T16:37:08.595Z,23.30
2022-08-10T16:39:57.711Z,23.20
2022-08-10T16:42:28.683Z,23.20
2022-08-10T16:45:03.992Z,22.90
2022-08-10T16:47:34.650Z,23.20
2022-08-10T16:50:05.757Z,23.20
2022-08-10T16:52:34.671Z,23.30
2022-08-10T16:55:23.392Z,23.40
2022-08-10T16:57:56.931Z,23.60
2022-08-10T17:00:25.699Z,23.30
2022-08-10T17:02:57.225Z,23.10
2022-08-10T17:06:09.730Z,23.10
2022-08-10T17:08:20.459Z,23.20
2022-08-10T17:10:51.433Z,23.20
2022-08-10T17:13:22.630Z,23.10
2022-08-10T17:15:53.674Z,23.00
2022-08-10T17:18:29.459Z,22.90
2022-08-10T17:21:00.090Z,22.90
2022-08-10T17:23:33.685Z,22.40
2022-08-10T17:26:07.837Z,22.00
2022-08-10T17:28:39.253Z,21.70
2022-08-10T17:31:23.791Z,21.40
2022-08-10T17:33:58.210Z,21.20
2022-08-10T17:36:32.225Z,21.00
2022-08-10T17:39:00.581Z,20.80
2022-08-10T17:41:31.340Z,20.80
2022-08-10T17:44:05.288Z,20.60
2022-08-10T17:46:36.367Z,20.50
2022-08-10T17:49:08.494Z,20.40
2022-08-10T17:51:38.269Z,20.10
2022-08-10T17:54:14.368Z,20.10
2022-08-10T17:56:41.879Z,19.70
2022-08-10T17:59:17.441Z,19.40
2022-08-10T18:02:01.489Z,19.30
2022-08-10T18:04:40.829Z,19.30
2022-08-10T18:07:10.789Z,19.10
2022-08-10T18:09:51.907Z,18.90
2022-08-10T18:12:36.154Z,18.60
2022-08-10T18:15:13.207Z,18.50
2022-08-10T18:17:44.752Z,18.30
2022-08-10T18:20:12.722Z,18.30
2022-08-10T18:22:44.774Z,18.20
2022-08-10T18:25:24.815Z,18.30
2022-08-10T18:28:04.289Z,18.10
2022-08-10T18:30:36.559Z,18.10
2022-08-10T18:33:09.259Z,18.30
2022-08-10T18:35:37.403Z,18.20
2022-08-10T18:38:06.681Z,18.20
2022-08-10T18:40:36.887Z,18.30
2022-08-10T18:44:07.554Z,18.40
2022-08-10T18:45:59.782Z,18.40
2022-08-10T18:48:37.175Z,18.40
2022-08-10T18:51:06.321Z,18.40
2022-08-10T18:53:50.544Z,18.40
2022-08-10T18:56:35.845Z,18.30
2022-08-10T18:59:13.698Z,18.20
2022-08-10T19:01:58.993Z,18.30
2022-08-10T19:04:56.946Z,18.20
2022-08-10T19:07:38.965Z,18.50
2022-08-10T19:10:33.980Z,18.40
2022-08-10T19:13:27.944Z,18.10
2022-08-10T19:16:07.317Z,18.20
2022-08-10T19:18:56.000Z,18.10
2022-08-10T19:21:47.567Z,18.00
2022-08-10T19:24:36.165Z,17.90
2022-08-10T19:27:35.390Z,17.80
2022-08-10T19:30:13.612Z,17.80
2022-08-10T19:33:02.478Z,17.80
2022-08-10T19:36:02.961Z,17.60
2022-08-10T19:38:51.369Z,17.60
2022-08-10T19:41:44.491Z,17.60
2022-08-10T19:44:26.805Z,17.50
2022-08-10T19:47:07.355Z,17.50
2022-08-10T19:49:49.224Z,17.20
2022-08-10T19:52:25.055Z,17.10
2022-08-10T19:55:04.803Z,17.20
2022-08-10T19:57:49.821Z,17.10
2022-08-10T20:00:22.961Z,16.90
2022-08-10T20:03:00.156Z,16.70
2022-08-10T20:05:36.361Z,16.70
2022-08-10T20:08:08.328Z,16.60
2022-08-10T20:10:56.894Z,16.40
2022-08-10T20:13:41.979Z,16.40
2022-08-10T20:16:19.847Z,16.30
2022-08-10T20:19:05.617Z,16.40
2022-08-10T20:21:47.291Z,16.30
2022-08-10T20:24:22.289Z,16.30
2022-08-10T20:27:13.332Z,16.40
2022-08-10T20:30:05.078Z,16.40
2022-08-10T20:32:38.622Z,16.30
2022-08-10T20:35:15.106Z,16.40
2022-08-10T20:38:03.753Z,16.50
2022-08-10T20:40:34.911Z,16.80
2022-08-10T20:43:42.626Z,16.80
2022-08-10T20:46:19.727Z,16.90
2022-08-10T20:48:55.331Z,17.00
2022-08-10T20:51:58.508Z,17.10
2022-08-10T20:54:15.401Z,17.10
2022-08-10T20:57:54.124Z,17.00
2022-08-10T21:00:13.699Z,17.00
2022-08-10T21:02:58.923Z,16.90
2022-08-10T21:06:03.222Z,16.90
2022-08-10T21:08:32.573Z,16.90
2022-08-10T21:11:11.556Z,16.90
2022-08-10T21:13:59.846Z,16.70
2022-08-10T21:16:38.495Z,16.60
2022-08-10T21:19:33.375Z,16.70
2022-08-10T21:22:12.384Z,16.80
2022-08-10T21:24:57.796Z,16.80
2022-08-10T21:27:55.409Z,16.90
2022-08-10T21:30:53.370Z,17.10
2022-08-10T21:33:59.738Z,17.30
2022-08-10T21:36:33.733Z,17.20
2022-08-10T21:39:15.177Z,17.20
2022-08-10T21:42:18.445Z,17.30
2022-08-10T21:45:24.690Z,17.50
2022-08-10T21:49:06.779Z,17.60
2022-08-10T21:52:05.987Z,17.20
2022-08-10T21:54:52.095Z,17.30
2022-08-10T21:57:45.802Z,17.40
2022-08-10T22:00:34.153Z,17.50
2022-08-10T22:03:22.272Z,17.30
2022-08-10T22:06:11.133Z,16.90
2022-08-10T22:09:04.075Z,17.20
2022-08-10T22:11:56.020Z,17.30
2022-08-10T22:14:46.012Z,17.10
2022-08-10T22:18:04.195Z,17.20
2022-08-10T22:20:49.516Z,17.10
2022-08-10T22:24:16.897Z,17.00
2022-08-10T22:27:46.437Z,17.30
2022-08-10T22:30:37.870Z,17.30
2022-08-10T22:33:59.540Z,17.50
2022-08-10T22:36:52.309Z,17.50
2022-08-10T22:40:11.164Z,17.30
2022-08-10T22:43:10.686Z,17.00
2022-08-10T22:46:07.037Z,16.80
2022-08-10T22:49:00.540Z,16.90
2022-08-10T22:51:58.048Z,16.90
2022-08-10T22:54:57.611Z,16.90
2022-08-10T22:57:44.004Z,17.00
2022-08-10T23:00:19.996Z,16.70
2022-08-10T23:03:05.178Z,16.40
2022-08-10T23:05:38.722Z,16.40
2022-08-10T23:08:19.536Z,16.20
2022-08-10T23:11:04.206Z,16.30
2022-08-10T23:13:38.897Z,16.30
2022-08-10T23:16:33.301Z,16.40
2022-08-10T23:19:09.961Z,16.40
2022-08-10T23:22:03.695Z,16.30
2022-08-10T23:24:31.987Z,16.10
2022-08-10T23:27:12.324Z,16.00
2022-08-10T23:30:03.845Z,15.90
2022-08-10T23:32:40.878Z,15.70
2022-08-10T23:36:12.973Z,15.30
2022-08-10T23:38:01.833Z,15.40
2022-08-10T23:40:29.168Z,15.20
2022-08-10T23:42:57.375Z,15.20
2022-08-10T23:45:27.131Z,15.10
2022-08-10T23:47:58.347Z,14.90
2022-08-10T23:50:28.710Z,15.00
2022-08-10T23:52:59.494Z,15.10
2022-08-10T23:55:30.360Z,14.80
2022-08-10T23:58:32.859Z,14.70
